createdAt,value
2018-12-29T01:57:24.394Z,-20964.98
2018-12-29T02:06:19.697Z,-20960.68
2018-12-29T02:08:48.088Z,-20951.80
2018-12-29T02:11:16.488Z,-20958.11
2018-12-29T02:13:44.849Z,-20951.37
2018-12-29T02:16:13.245Z,-20954.38
2018-12-29T02:18:41.645Z,-20966.70
2018-12-29T02:21:10.019Z,-20954.09
2018-12-29T02:23:38.400Z,-20965.41
2018-12-29T02:26:06.767Z,-20943.21
2018-12-29T02:28:35.139Z,-20951.23
2018-12-29T02:31:03.528Z,-20953.66
2018-12-29T02:33:31.897Z,-20960.68
2018-12-29T02:36:00.280Z,-20972.57
2018-12-29T02:38:28.658Z,-20973.00
2018-12-29T02:40:57.020Z,-20962.83
2018-12-29T02:43:25.420Z,-20964.70
2018-12-29T02:45:53.835Z,-20970.99
2018-12-29T02:48:22.201Z,-20976.71
2018-12-29T02:50:50.572Z,-20985.45
2018-12-29T02:53:18.952Z,-20973.00
2018-12-29T02:55:47.317Z,-20968.70
2018-12-29T02:58:15.683Z,-20965.41
2018-12-29T03:00:44.056Z,-20963.26
2018-12-29T03:03:12.450Z,-20974.00
2018-12-29T03:05:40.831Z,-20959.25
2018-12-29T04:06:22.574Z,-20955.53
2018-12-29T04:26:22.688Z,-20972.00
2018-12-29T04:28:51.086Z,-20961.55
2018-12-29T04:31:19.473Z,-20981.30
2018-12-29T04:33:47.838Z,-20966.13
2018-12-29T04:36:16.201Z,-20963.55
2018-12-29T04:38:44.577Z,-20971.56
2018-12-29T04:41:12.958Z,-20990.73
2018-12-29T04:43:41.330Z,-20974.00
2018-12-29T04:46:09.709Z,-20969.56
2018-12-29T04:48:38.085Z,-20976.57
2018-12-29T04:51:06.494Z,-20967.55
2018-12-29T04:53:34.907Z,-20962.12
2018-12-29T04:56:03.286Z,-20973.14
2018-12-29T04:58:31.643Z,-20967.27
2018-12-29T05:01:00.028Z,-20970.70
2018-12-29T05:03:28.415Z,-20973.43
2018-12-29T05:05:56.798Z,-20969.99
2018-12-29T05:08:25.160Z,-20961.11
2018-12-29T05:10:53.533Z,-20957.68
2018-12-29T05:13:21.900Z,-20965.84
2018-12-29T05:15:50.293Z,-20980.87
2018-12-29T05:18:18.665Z,-20969.71
2018-12-29T05:20:47.045Z,-20975.57
2018-12-29T05:23:15.423Z,-20976.57
2018-12-29T05:25:43.812Z,-20976.86
2018-12-29T05:28:12.182Z,-20994.31
2018-12-29T05:30:40.546Z,-20992.46
2018-12-29T05:33:08.931Z,-20955.82
2018-12-29T05:35:37.308Z,-20943.93
2018-12-29T05:38:05.727Z,-20964.41
2018-12-29T05:40:34.094Z,-20951.52
2018-12-29T05:43:02.465Z,-20938.48
2018-12-29T05:45:32.121Z,-20945.50
2018-12-29T06:36:31.793Z,-20945.21
2018-12-29T06:39:00.162Z,-20939.63
2018-12-29T06:41:28.537Z,-20945.50
2018-12-29T06:43:56.940Z,-20935.47
2018-12-29T06:46:26.179Z,-20976.57
2018-12-29T07:06:12.930Z,-20945.07
2018-12-29T07:08:41.312Z,-20943.35
2018-12-29T07:11:09.692Z,-20959.54
2018-12-29T07:13:38.106Z,-20947.51
2018-12-29T07:16:06.477Z,-20959.97
2018-12-29T07:18:34.862Z,-20945.93
2018-12-29T07:21:03.249Z,-20945.79
2018-12-29T07:23:31.619Z,-20951.95
2018-12-29T07:26:00.000Z,-20944.21
2018-12-29T07:57:27.632Z,-20970.99
2018-12-29T07:59:56.016Z,-20962.83
2018-12-29T08:02:24.386Z,-20949.23
2018-12-29T08:04:52.747Z,-20958.54
2018-12-29T08:07:21.140Z,-20957.25
2018-12-29T08:09:49.493Z,-20955.39
2018-12-29T08:12:17.859Z,-20968.27
2018-12-29T08:14:46.325Z,-20962.55
2018-12-29T08:17:14.703Z,-20943.64
2018-12-29T08:19:43.078Z,-20944.07
2018-12-29T08:22:11.470Z,-20959.54
2018-12-29T08:24:39.837Z,-20939.20
2018-12-29T08:27:08.221Z,-20940.06
2018-12-29T08:29:36.602Z,-20949.51
2018-12-29T08:32:04.985Z,-20949.94
2018-12-29T08:34:33.358Z,-20955.10
2018-12-29T08:37:01.736Z,-20954.82
2018-12-29T08:39:30.103Z,-20950.09
2018-12-29T08:41:58.461Z,-20962.26
2018-12-29T08:44:26.858Z,-20948.08
2018-12-29T08:46:55.219Z,-20952.24
2018-12-29T08:49:23.624Z,-20952.52
2018-12-29T08:51:51.998Z,-20963.55
2018-12-29T08:54:20.373Z,-20944.21
2018-12-29T08:56:48.747Z,-20961.98
2018-12-29T08:59:17.119Z,-20973.57
2018-12-29T09:01:45.503Z,-20970.56
2018-12-29T09:04:13.868Z,-20965.70
2018-12-29T09:06:42.242Z,-20963.55
2018-12-29T09:09:10.619Z,-20969.85
2018-12-29T09:11:38.986Z,-20961.83
2018-12-29T09:14:07.365Z,-20967.70
2018-12-29T09:16:35.754Z,-20950.09
2018-12-29T09:19:04.152Z,-20956.39
2018-12-29T09:21:32.540Z,-20956.82
2018-12-29T09:24:00.950Z,-20994.17
2018-12-29T09:26:29.333Z,-20996.32
2018-12-29T09:28:57.726Z,-20975.57
2018-12-29T09:31:26.109Z,-20993.88
2018-12-29T09:33:54.512Z,-20991.89
2018-12-29T09:36:22.884Z,-20989.45
2018-12-29T09:38:51.264Z,-20993.17
2018-12-29T09:41:19.649Z,-20994.17
2018-12-29T09:43:48.043Z,-20991.31
2018-12-29T09:46:16.469Z,-20993.46
2018-12-29T09:48:44.840Z,-20983.58
2018-12-29T09:51:13.218Z,-20991.17
2018-12-29T09:53:41.606Z,-20991.31
2018-12-29T09:56:09.981Z,-20993.17
2018-12-29T09:58:38.387Z,-20984.44
2018-12-29T10:01:06.761Z,-20975.71
2018-12-29T10:03:35.118Z,-20968.70
2018-12-29T10:06:03.564Z,-20992.46
2018-12-29T10:08:31.940Z,-21004.18
2018-12-29T10:11:00.320Z,-20952.81
2018-12-29T10:13:28.693Z,-20959.54
2018-12-29T10:15:57.165Z,-20964.84
2018-12-29T10:18:25.626Z,-20966.98
2018-12-29T10:20:53.997Z,-20967.70
2018-12-29T10:23:22.376Z,-20977.86
2018-12-29T10:25:50.754Z,-20959.68
2018-12-29T10:28:19.119Z,-20959.25
2018-12-29T10:30:47.506Z,-20959.25
2018-12-29T10:33:15.857Z,-20975.43
2018-12-29T10:35:44.228Z,-20960.25
2018-12-29T10:38:12.608Z,-20973.86
2018-12-29T10:40:40.988Z,-20956.39
2018-12-29T10:43:09.365Z,-20964.55
2018-12-29T10:45:37.737Z,-20963.12
2018-12-29T10:48:06.121Z,-20981.87
2018-12-29T10:50:34.498Z,-20987.45
2018-12-29T10:53:02.884Z,-20970.85
2018-12-29T10:55:31.268Z,-20972.28
2018-12-29T10:57:59.636Z,-20959.68
2018-12-29T11:00:34.736Z,-20973.86
